Dryden, Dryden Regional Airport (CYHD)

NameDryden Regional Airport
CityDryden
CountryCanada
ICAOCYHD
IATAYHD
Altitude413 m
CoordinatesGoogle Map
Live Air TrafficLiveATC.net
METARCYHD 220800Z AUTO 11005KT 9SM BKN100 04/M00 A3015 RMK SLP226
2019-04-22 08:00:00 Wind: East (110°) 2.57 m/s - Visibility: 14484.06 m - Temperature: 4 °C - Dew point: -0 °C - Humidity: 75.4% - Pressure: 1021 hPa
Statistics

The table below shows the detailed information of all flights to/from Dryden, Dryden Regional Airport (CYHD).

Ident Aircraft Coming fromFrom Going toTo Owner nameOwnerSpotted durationDurationDate
C-GYNO - A139 - FlyNordic FlyNordic LF7 BELL-AGUSTA AW-139 A139 Dryden, Canada (CYHD) CYHD
1227 km
Thunder Bay, Canada (CYQT) CYQT
930 km
Ornge Air Ornge Air 00:14:49 00:14:49 Wed, 10 Apr 2019 23:41:39 +0000 10/4/2019 11:41 pm
Wed, 10 Apr 2019 23:56:28 +0000 10/4/2019 11:56 pm
C-FZTA - AS50 - Not Available Not Available CFZTA LOT AS-350 AStar AS50 Dryden, Canada (CYHD) CYHD
1367 km
International Falls, United States (KINL) KINL
1384 km
Questral Helicopters Questral Helicopters 00:06:22 00:06:22 Wed, 10 Apr 2019 11:22:49 +0000 10/4/2019 11:22 am
Wed, 10 Apr 2019 11:29:11 +0000 10/4/2019 11:29 am
C-GNLN - B732 - Nolinor Aviation NRL31 BOEING 737-200 B732 Montreal, Canada (CYMX) CYMX
524 km
Dryden, Canada (CYHD) CYHD
1147 km
Nolinor Aviation Nolinor Aviation 00:45:05 00:45:05 Sat, 23 Mar 2019 10:09:00 +0000 23/3/2019 10:09 am
Sat, 23 Mar 2019 10:54:05 +0000 23/3/2019 10:54 am